sensor_id;sensor_type;location;lat;lon;timestamp;P1;durP1;ratioP1;P2;durP2;ratioP2
11791;SDS011;5953;52.372;9.918;2022-09-12T00:00:22;10.60;;;8.50;;
11791;SDS011;5953;52.372;9.918;2022-09-12T00:02:51;9.13;;;8.23;;
11791;SDS011;5953;52.372;9.918;2022-09-12T00:05:19;10.03;;;8.13;;
11791;SDS011;5953;52.372;9.918;2022-09-12T00:07:48;10.57;;;8.50;;
11791;SDS011;5953;52.372;9.918;2022-09-12T00:10:17;9.53;;;8.00;;
11791;SDS011;5953;52.372;9.918;2022-09-12T00:12:45;10.57;;;7.63;;
11791;SDS011;5953;52.372;9.918;2022-09-12T00:15:13;11.07;;;8.67;;
11791;SDS011;5953;52.372;9.918;2022-09-12T00:17:40;10.43;;;8.47;;
11791;SDS011;5953;52.372;9.918;2022-09-12T00:20:08;12.60;;;9.47;;
11791;SDS011;5953;52.372;9.918;2022-09-12T00:22:37;12.13;;;9.23;;
11791;SDS011;5953;52.372;9.918;2022-09-12T00:25:05;11.40;;;8.87;;
11791;SDS011;5953;52.372;9.918;2022-09-12T00:27:35;10.27;;;8.53;;
11791;SDS011;5953;52.372;9.918;2022-09-12T00:30:03;10.37;;;8.90;;
11791;SDS011;5953;52.372;9.918;2022-09-12T00:32:31;9.20;;;8.20;;
11791;SDS011;5953;52.372;9.918;2022-09-12T00:34:59;11.03;;;9.10;;
11791;SDS011;5953;52.372;9.918;2022-09-12T00:37:28;11.20;;;9.13;;
11791;SDS011;5953;52.372;9.918;2022-09-12T00:39:56;11.87;;;9.07;;
11791;SDS011;5953;52.372;9.918;2022-09-12T00:42:24;12.10;;;8.57;;
11791;SDS011;5953;52.372;9.918;2022-09-12T00:44:53;12.13;;;9.73;;
11791;SDS011;5953;52.372;9.918;2022-09-12T00:47:22;12.63;;;9.10;;
11791;SDS011;5953;52.372;9.918;2022-09-12T00:49:54;12.07;;;10.10;;
11791;SDS011;5953;52.372;9.918;2022-09-12T00:52:26;10.20;;;9.10;;
11791;SDS011;5953;52.372;9.918;2022-09-12T00:54:59;13.43;;;9.30;;
11791;SDS011;5953;52.372;9.918;2022-09-12T00:57:31;13.03;;;10.47;;
11791;SDS011;5953;52.372;9.918;2022-09-12T01:00:06;12.43;;;9.43;;
11791;SDS011;5953;52.372;9.918;2022-09-12T01:02:40;12.80;;;9.87;;
11791;SDS011;5953;52.372;9.918;2022-09-12T01:05:09;11.80;;;10.10;;
11791;SDS011;5953;52.372;9.918;2022-09-12T01:07:37;13.03;;;10.03;;
11791;SDS011;5953;52.372;9.918;2022-09-12T01:10:06;13.70;;;10.13;;
11791;SDS011;5953;52.372;9.918;2022-09-12T01:12:36;10.87;;;9.47;;
11791;SDS011;5953;52.372;9.918;2022-09-12T01:15:07;11.17;;;9.70;;
11791;SDS011;5953;52.372;9.918;2022-09-12T01:17:37;13.43;;;10.03;;
11791;SDS011;5953;52.372;9.918;2022-09-12T01:20:29;13.57;;;10.53;;
11791;SDS011;5953;52.372;9.918;2022-09-12T01:23:25;14.03;;;10.27;;
11791;SDS011;5953;52.372;9.918;2022-09-12T01:26:25;11.17;;;9.03;;
11791;SDS011;5953;52.372;9.918;2022-09-12T01:29:20;10.97;;;8.80;;
11791;SDS011;5953;52.372;9.918;2022-09-12T01:32:04;11.13;;;8.77;;
11791;SDS011;5953;52.372;9.918;2022-09-12T01:34:37;9.93;;;8.57;;
11791;SDS011;5953;52.372;9.918;2022-09-12T01:37:13;9.53;;;8.57;;
11791;SDS011;5953;52.372;9.918;2022-09-12T01:39:45;10.53;;;8.70;;
11791;SDS011;5953;52.372;9.918;2022-09-12T01:42:19;11.03;;;9.13;;
11791;SDS011;5953;52.372;9.918;2022-09-12T01:44:53;10.30;;;8.90;;
11791;SDS011;5953;52.372;9.918;2022-09-12T01:47:28;10.47;;;8.93;;
11791;SDS011;5953;52.372;9.918;2022-09-12T01:50:06;12.40;;;9.90;;
11791;SDS011;5953;52.372;9.918;2022-09-12T01:52:37;11.73;;;8.97;;
11791;SDS011;5953;52.372;9.918;2022-09-12T01:55:11;12.90;;;8.60;;
11791;SDS011;5953;52.372;9.918;2022-09-12T01:57:44;11.37;;;9.57;;
11791;SDS011;5953;52.372;9.918;2022-09-12T02:00:15;12.13;;;8.97;;
11791;SDS011;5953;52.372;9.918;2022-09-12T02:02:46;12.27;;;9.47;;
11791;SDS011;5953;52.372;9.918;2022-09-12T02:05:19;12.07;;;8.93;;
11791;SDS011;5953;52.372;9.918;2022-09-12T02:07:52;11.07;;;9.30;;
11791;SDS011;5953;52.372;9.918;2022-09-12T02:10:24;10.33;;;8.33;;
11791;SDS011;5953;52.372;9.918;2022-09-12T02:12:59;10.53;;;9.40;;
11791;SDS011;5953;52.372;9.918;2022-09-12T02:15:31;11.07;;;8.73;;
11791;SDS011;5953;52.372;9.918;2022-09-12T02:18:04;13.07;;;9.53;;
11791;SDS011;5953;52.372;9.918;2022-09-12T02:20:33;12.30;;;9.27;;
11791;SDS011;5953;52.372;9.918;2022-09-12T02:23:14;11.90;;;9.13;;
11791;SDS011;5953;52.372;9.918;2022-09-12T02:25:55;12.77;;;10.07;;
11791;SDS011;5953;52.372;9.918;2022-09-12T02:28:28;12.17;;;10.03;;
11791;SDS011;5953;52.372;9.918;2022-09-12T02:30:59;11.27;;;9.10;;
11791;SDS011;5953;52.372;9.918;2022-09-12T02:33:31;10.50;;;9.10;;
11791;SDS011;5953;52.372;9.918;2022-09-12T02:36:08;12.53;;;9.07;;
11791;SDS011;5953;52.372;9.918;2022-09-12T02:38:40;11.47;;;8.90;;
11791;SDS011;5953;52.372;9.918;2022-09-12T02:41:13;10.83;;;8.70;;
11791;SDS011;5953;52.372;9.918;2022-09-12T02:43:43;12.50;;;9.20;;
11791;SDS011;5953;52.372;9.918;2022-09-12T02:46:12;11.73;;;9.40;;
11791;SDS011;5953;52.372;9.918;2022-09-12T02:48:44;11.67;;;9.53;;
11791;SDS011;5953;52.372;9.918;2022-09-12T02:51:12;11.40;;;9.50;;
11791;SDS011;5953;52.372;9.918;2022-09-12T02:53:40;11.70;;;9.57;;
11791;SDS011;5953;52.372;9.918;2022-09-12T02:56:10;11.83;;;9.67;;
11791;SDS011;5953;52.372;9.918;2022-09-12T02:58:43;12.90;;;9.93;;
11791;SDS011;5953;52.372;9.918;2022-09-12T03:01:13;11.83;;;9.37;;
11791;SDS011;5953;52.372;9.918;2022-09-12T03:03:53;10.27;;;8.67;;
11791;SDS011;5953;52.372;9.918;2022-09-12T03:06:32;11.30;;;9.10;;
11791;SDS011;5953;52.372;9.918;2022-09-12T03:09:08;10.83;;;9.30;;
11791;SDS011;5953;52.372;9.918;2022-09-12T03:11:47;11.63;;;9.27;;
11791;SDS011;5953;52.372;9.918;2022-09-12T03:14:34;10.43;;;8.80;;
11791;SDS011;5953;52.372;9.918;2022-09-12T03:17:18;10.87;;;8.47;;
11791;SDS011;5953;52.372;9.918;2022-09-12T03:19:55;12.57;;;9.13;;
11791;SDS011;5953;52.372;9.918;2022-09-12T03:22:27;11.47;;;9.10;;
11791;SDS011;5953;52.372;9.918;2022-09-12T03:25:03;15.67;;;10.33;;
11791;SDS011;5953;52.372;9.918;2022-09-12T03:27:39;12.73;;;10.10;;
11791;SDS011;5953;52.372;9.918;2022-09-12T03:30:12;11.43;;;10.00;;
11791;SDS011;5953;52.372;9.918;2022-09-12T03:32:41;11.57;;;8.87;;
11791;SDS011;5953;52.372;9.918;2022-09-12T03:35:10;11.47;;;9.37;;
11791;SDS011;5953;52.372;9.918;2022-09-12T03:37:39;10.77;;;9.00;;
11791;SDS011;5953;52.372;9.918;2022-09-12T03:40:07;12.20;;;9.73;;
11791;SDS011;5953;52.372;9.918;2022-09-12T03:42:37;12.47;;;9.37;;
11791;SDS011;5953;52.372;9.918;2022-09-12T03:45:06;13.23;;;9.47;;
11791;SDS011;5953;52.372;9.918;2022-09-12T03:47:35;14.43;;;10.27;;
11791;SDS011;5953;52.372;9.918;2022-09-12T03:50:03;11.93;;;9.30;;
11791;SDS011;5953;52.372;9.918;2022-09-12T03:52:32;9.63;;;8.50;;
11791;SDS011;5953;52.372;9.918;2022-09-12T03:55:00;11.53;;;8.43;;
11791;SDS011;5953;52.372;9.918;2022-09-12T03:57:28;12.17;;;9.50;;
11791;SDS011;5953;52.372;9.918;2022-09-12T03:59:57;11.53;;;8.67;;
11791;SDS011;5953;52.372;9.918;2022-09-12T04:02:24;10.67;;;9.47;;
11791;SDS011;5953;52.372;9.918;2022-09-12T04:04:52;10.97;;;8.57;;
11791;SDS011;5953;52.372;9.918;2022-09-12T04:07:20;11.77;;;8.97;;
11791;SDS011;5953;52.372;9.918;2022-09-12T04:09:48;12.63;;;9.30;;
11791;SDS011;5953;52.372;9.918;2022-09-12T04:12:15;10.43;;;8.80;;
11791;SDS011;5953;52.372;9.918;2022-09-12T04:14:43;12.13;;;9.93;;
11791;SDS011;5953;52.372;9.918;2022-09-12T04:17:12;10.77;;;9.50;;
11791;SDS011;5953;52.372;9.918;2022-09-12T04:19:40;11.83;;;9.67;;
11791;SDS011;5953;52.372;9.918;2022-09-12T04:22:08;12.30;;;9.93;;
11791;SDS011;5953;52.372;9.918;2022-09-12T04:24:36;11.87;;;9.40;;
11791;SDS011;5953;52.372;9.918;2022-09-12T04:27:04;12.27;;;9.37;;
11791;SDS011;5953;52.372;9.918;2022-09-12T04:29:33;13.20;;;9.57;;
11791;SDS011;5953;52.372;9.918;2022-09-12T04:32:01;10.97;;;9.33;;
11791;SDS011;5953;52.372;9.918;2022-09-12T04:34:31;11.67;;;9.80;;
11791;SDS011;5953;52.372;9.918;2022-09-12T04:36:59;10.33;;;8.53;;
11791;SDS011;5953;52.372;9.918;2022-09-12T04:39:26;11.47;;;8.80;;
11791;SDS011;5953;52.372;9.918;2022-09-12T04:41:54;11.50;;;8.90;;
11791;SDS011;5953;52.372;9.918;2022-09-12T04:44:22;9.70;;;8.27;;
11791;SDS011;5953;52.372;9.918;2022-09-12T04:46:50;9.80;;;8.20;;
11791;SDS011;5953;52.372;9.918;2022-09-12T04:49:18;11.53;;;8.93;;
11791;SDS011;5953;52.372;9.918;2022-09-12T04:51:47;10.83;;;8.20;;
11791;SDS011;5953;52.372;9.918;2022-09-12T04:54:15;9.13;;;7.93;;
11791;SDS011;5953;52.372;9.918;2022-09-12T04:56:45;10.40;;;8.00;;
11791;SDS011;5953;52.372;9.918;2022-09-12T04:59:14;8.83;;;7.87;;
11791;SDS011;5953;52.372;9.918;2022-09-12T05:01:43;10.07;;;8.03;;
11791;SDS011;5953;52.372;9.918;2022-09-12T05:04:13;8.67;;;7.77;;
11791;SDS011;5953;52.372;9.918;2022-09-12T05:06:41;11.00;;;8.00;;
11791;SDS011;5953;52.372;9.918;2022-09-12T05:09:13;10.77;;;7.80;;
11791;SDS011;5953;52.372;9.918;2022-09-12T05:11:42;11.30;;;8.17;;
11791;SDS011;5953;52.372;9.918;2022-09-12T05:14:30;9.43;;;7.90;;
11791;SDS011;5953;52.372;9.918;2022-09-12T05:16:59;10.13;;;8.17;;
11791;SDS011;5953;52.372;9.918;2022-09-12T05:19:27;9.07;;;7.73;;
11791;SDS011;5953;52.372;9.918;2022-09-12T05:21:56;8.93;;;7.40;;
11791;SDS011;5953;52.372;9.918;2022-09-12T05:24:26;10.57;;;7.87;;
11791;SDS011;5953;52.372;9.918;2022-09-12T05:26:54;10.17;;;8.40;;
11791;SDS011;5953;52.372;9.918;2022-09-12T05:29:21;11.07;;;8.60;;
11791;SDS011;5953;52.372;9.918;2022-09-12T05:31:50;13.30;;;8.47;;
11791;SDS011;5953;52.372;9.918;2022-09-12T05:34:18;13.13;;;9.57;;
11791;SDS011;5953;52.372;9.918;2022-09-12T05:36:46;15.43;;;10.10;;
11791;SDS011;5953;52.372;9.918;2022-09-12T05:39:14;13.10;;;10.23;;
11791;SDS011;5953;52.372;9.918;2022-09-12T05:41:45;15.00;;;11.07;;
11791;SDS011;5953;52.372;9.918;2022-09-12T05:44:13;12.07;;;9.27;;
11791;SDS011;5953;52.372;9.918;2022-09-12T05:46:41;14.57;;;11.23;;
11791;SDS011;5953;52.372;9.918;2022-09-12T05:49:12;15.97;;;11.67;;
11791;SDS011;5953;52.372;9.918;2022-09-12T05:51:40;15.17;;;12.13;;
11791;SDS011;5953;52.372;9.918;2022-09-12T05:54:10;12.90;;;10.70;;
11791;SDS011;5953;52.372;9.918;2022-09-12T05:56:40;14.13;;;10.83;;
11791;SDS011;5953;52.372;9.918;2022-09-12T05:59:11;19.73;;;13.00;;
11791;SDS011;5953;52.372;9.918;2022-09-12T06:01:40;16.40;;;12.73;;
11791;SDS011;5953;52.372;9.918;2022-09-12T06:04:10;19.73;;;13.27;;
11791;SDS011;5953;52.372;9.918;2022-09-12T06:06:38;16.07;;;12.53;;
11791;SDS011;5953;52.372;9.918;2022-09-12T06:09:08;15.80;;;13.33;;
11791;SDS011;5953;52.372;9.918;2022-09-12T06:11:37;18.67;;;13.03;;
11791;SDS011;5953;52.372;9.918;2022-09-12T06:14:07;16.30;;;13.83;;
11791;SDS011;5953;52.372;9.918;2022-09-12T06:16:37;17.87;;;12.83;;
11791;SDS011;5953;52.372;9.918;2022-09-12T06:19:06;15.43;;;12.57;;
11791;SDS011;5953;52.372;9.918;2022-09-12T06:21:40;15.40;;;12.60;;
11791;SDS011;5953;52.372;9.918;2022-09-12T06:24:09;15.43;;;13.13;;
11791;SDS011;5953;52.372;9.918;2022-09-12T06:26:37;16.93;;;13.57;;
11791;SDS011;5953;52.372;9.918;2022-09-12T06:29:06;21.60;;;15.13;;
11791;SDS011;5953;52.372;9.918;2022-09-12T06:31:34;17.60;;;12.93;;
11791;SDS011;5953;52.372;9.918;2022-09-12T06:34:06;17.37;;;14.13;;
11791;SDS011;5953;52.372;9.918;2022-09-12T06:36:38;16.13;;;13.90;;
11791;SDS011;5953;52.372;9.918;2022-09-12T06:39:10;17.23;;;13.87;;
11791;SDS011;5953;52.372;9.918;2022-09-12T06:41:39;17.70;;;14.63;;
11791;SDS011;5953;52.372;9.918;2022-09-12T06:44:10;18.77;;;14.07;;
11791;SDS011;5953;52.372;9.918;2022-09-12T06:46:40;16.43;;;14.03;;
11791;SDS011;5953;52.372;9.918;2022-09-12T06:49:09;18.00;;;13.47;;
11791;SDS011;5953;52.372;9.918;2022-09-12T06:51:38;18.47;;;13.63;;
11791;SDS011;5953;52.372;9.918;2022-09-12T06:54:08;17.30;;;13.87;;
11791;SDS011;5953;52.372;9.918;2022-09-12T06:56:39;17.07;;;13.43;;
11791;SDS011;5953;52.372;9.918;2022-09-12T06:59:07;13.97;;;12.03;;
11791;SDS011;5953;52.372;9.918;2022-09-12T07:01:37;16.93;;;13.77;;
11791;SDS011;5953;52.372;9.918;2022-09-12T07:04:05;18.07;;;12.57;;
11791;SDS011;5953;52.372;9.918;2022-09-12T07:06:36;18.73;;;13.83;;
11791;SDS011;5953;52.372;9.918;2022-09-12T07:09:06;15.90;;;11.90;;
11791;SDS011;5953;52.372;9.918;2022-09-12T07:11:36;15.77;;;12.23;;
11791;SDS011;5953;52.372;9.918;2022-09-12T07:14:05;14.47;;;12.23;;
11791;SDS011;5953;52.372;9.918;2022-09-12T07:16:34;13.70;;;11.17;;
11791;SDS011;5953;52.372;9.918;2022-09-12T07:19:03;14.90;;;11.60;;
11791;SDS011;5953;52.372;9.918;2022-09-12T07:21:32;16.73;;;12.50;;
11791;SDS011;5953;52.372;9.918;2022-09-12T07:24:06;15.17;;;11.33;;
11791;SDS011;5953;52.372;9.918;2022-09-12T07:26:35;13.53;;;11.13;;
11791;SDS011;5953;52.372;9.918;2022-09-12T07:29:03;12.87;;;11.27;;
11791;SDS011;5953;52.372;9.918;2022-09-12T07:31:51;14.97;;;11.10;;
11791;SDS011;5953;52.372;9.918;2022-09-12T07:34:20;13.37;;;10.77;;
11791;SDS011;5953;52.372;9.918;2022-09-12T07:36:47;12.90;;;11.17;;
11791;SDS011;5953;52.372;9.918;2022-09-12T07:39:16;13.23;;;9.83;;
11791;SDS011;5953;52.372;9.918;2022-09-12T07:41:45;14.60;;;11.00;;
11791;SDS011;5953;52.372;9.918;2022-09-12T07:44:12;15.00;;;11.03;;
11791;SDS011;5953;52.372;9.918;2022-09-12T07:46:40;12.83;;;10.63;;
11791;SDS011;5953;52.372;9.918;2022-09-12T07:49:10;13.33;;;10.97;;
11791;SDS011;5953;52.372;9.918;2022-09-12T07:51:38;13.77;;;10.80;;
11791;SDS011;5953;52.372;9.918;2022-09-12T07:54:06;12.27;;;10.07;;
11791;SDS011;5953;52.372;9.918;2022-09-12T07:56:36;12.30;;;10.20;;
11791;SDS011;5953;52.372;9.918;2022-09-12T07:59:05;11.40;;;9.17;;
11791;SDS011;5953;52.372;9.918;2022-09-12T08:01:33;10.93;;;9.77;;
11791;SDS011;5953;52.372;9.918;2022-09-12T08:04:01;13.07;;;10.23;;
11791;SDS011;5953;52.372;9.918;2022-09-12T08:06:30;10.63;;;9.07;;
11791;SDS011;5953;52.372;9.918;2022-09-12T08:09:01;13.80;;;9.90;;
11791;SDS011;5953;52.372;9.918;2022-09-12T08:11:30;10.97;;;8.67;;
11791;SDS011;5953;52.372;9.918;2022-09-12T08:13:59;11.50;;;9.73;;
11791;SDS011;5953;52.372;9.918;2022-09-12T08:16:28;12.07;;;10.57;;
11791;SDS011;5953;52.372;9.918;2022-09-12T08:18:59;13.00;;;9.73;;
11791;SDS011;5953;52.372;9.918;2022-09-12T08:21:29;9.97;;;8.50;;
11791;SDS011;5953;52.372;9.918;2022-09-12T08:23:59;12.07;;;10.17;;
11791;SDS011;5953;52.372;9.918;2022-09-12T08:26:28;10.73;;;8.67;;
11791;SDS011;5953;52.372;9.918;2022-09-12T08:28:56;10.53;;;8.97;;
11791;SDS011;5953;52.372;9.918;2022-09-12T08:31:26;11.60;;;9.13;;
11791;SDS011;5953;52.372;9.918;2022-09-12T08:33:55;11.70;;;9.83;;
11791;SDS011;5953;52.372;9.918;2022-09-12T08:36:24;8.83;;;7.90;;
11791;SDS011;5953;52.372;9.918;2022-09-12T08:38:53;9.43;;;8.47;;
11791;SDS011;5953;52.372;9.918;2022-09-12T08:41:27;9.43;;;8.37;;
11791;SDS011;5953;52.372;9.918;2022-09-12T08:44:08;11.10;;;9.37;;
11791;SDS011;5953;52.372;9.918;2022-09-12T08:46:57;11.27;;;8.23;;
11791;SDS011;5953;52.372;9.918;2022-09-12T08:49:37;11.90;;;7.77;;
11791;SDS011;5953;52.372;9.918;2022-09-12T08:52:11;8.43;;;7.50;;
11791;SDS011;5953;52.372;9.918;2022-09-12T08:54:45;9.23;;;6.43;;
11791;SDS011;5953;52.372;9.918;2022-09-12T08:57:13;8.23;;;7.23;;
11791;SDS011;5953;52.372;9.918;2022-09-12T08:59:44;8.30;;;7.50;;
11791;SDS011;5953;52.372;9.918;2022-09-12T09:02:19;9.10;;;7.93;;
11791;SDS011;5953;52.372;9.918;2022-09-12T09:04:59;7.63;;;6.70;;
11791;SDS011;5953;52.372;9.918;2022-09-12T09:07:44;8.03;;;6.63;;
11791;SDS011;5953;52.372;9.918;2022-09-12T09:10:30;7.37;;;6.57;;
11791;SDS011;5953;52.372;9.918;2022-09-12T09:13:07;7.50;;;5.63;;
11791;SDS011;5953;52.372;9.918;2022-09-12T09:16:06;9.13;;;6.77;;
11791;SDS011;5953;52.372;9.918;2022-09-12T09:18:42;9.13;;;6.90;;
11791;SDS011;5953;52.372;9.918;2022-09-12T09:21:15;8.27;;;6.27;;
11791;SDS011;5953;52.372;9.918;2022-09-12T09:23:48;7.50;;;6.70;;
11791;SDS011;5953;52.372;9.918;2022-09-12T09:26:20;8.57;;;5.30;;
11791;SDS011;5953;52.372;9.918;2022-09-12T09:28:53;9.37;;;6.43;;
11791;SDS011;5953;52.372;9.918;2022-09-12T09:31:28;6.57;;;5.30;;
11791;SDS011;5953;52.372;9.918;2022-09-12T09:33:59;6.83;;;4.97;;
11791;SDS011;5953;52.372;9.918;2022-09-12T09:36:31;7.20;;;5.97;;
11791;SDS011;5953;52.372;9.918;2022-09-12T09:39:10;6.60;;;5.90;;
11791;SDS011;5953;52.372;9.918;2022-09-12T09:41:49;6.47;;;5.22;;
11791;SDS011;5953;52.372;9.918;2022-09-12T09:44:26;7.30;;;4.90;;
11791;SDS011;5953;52.372;9.918;2022-09-12T09:46:57;7.22;;;6.32;;
11791;SDS011;5953;52.372;9.918;2022-09-12T09:49:27;10.50;;;6.00;;
11791;SDS011;5953;52.372;9.918;2022-09-12T09:51:57;8.30;;;7.50;;
11791;SDS011;5953;52.372;9.918;2022-09-12T09:54:27;6.77;;;6.10;;
11791;SDS011;5953;52.372;9.918;2022-09-12T09:57:01;8.63;;;5.70;;
11791;SDS011;5953;52.372;9.918;2022-09-12T09:59:29;8.17;;;5.77;;
11791;SDS011;5953;52.372;9.918;2022-09-12T10:02:01;7.45;;;6.72;;
11791;SDS011;5953;52.372;9.918;2022-09-12T10:04:51;8.05;;;7.25;;
11791;SDS011;5953;52.372;9.918;2022-09-12T10:07:20;9.07;;;7.63;;
11791;SDS011;5953;52.372;9.918;2022-09-12T10:10:02;8.13;;;7.33;;
11791;SDS011;5953;52.372;9.918;2022-09-12T10:12:32;6.43;;;5.73;;
11791;SDS011;5953;52.372;9.918;2022-09-12T10:15:01;5.55;;;4.90;;
11791;SDS011;5953;52.372;9.918;2022-09-12T10:17:42;6.37;;;5.77;;
11791;SDS011;5953;52.372;9.918;2022-09-12T10:22:58;7.13;;;5.43;;
11791;SDS011;5953;52.372;9.918;2022-09-12T10:25:27;5.60;;;4.73;;
11791;SDS011;5953;52.372;9.918;2022-09-12T10:27:55;6.17;;;5.57;;
11791;SDS011;5953;52.372;9.918;2022-09-12T10:30:25;5.40;;;4.67;;
11791;SDS011;5953;52.372;9.918;2022-09-12T10:32:57;7.20;;;4.90;;
11791;SDS011;5953;52.372;9.918;2022-09-12T10:35:41;5.68;;;4.45;;
11791;SDS011;5953;52.372;9.918;2022-09-12T10:38:13;6.60;;;6.00;;
11791;SDS011;5953;52.372;9.918;2022-09-12T10:40:44;7.05;;;6.35;;
11791;SDS011;5953;52.372;9.918;2022-09-12T10:43:15;6.25;;;5.65;;
11791;SDS011;5953;52.372;9.918;2022-09-12T10:45:44;6.82;;;5.25;;
11791;SDS011;5953;52.372;9.918;2022-09-12T10:48:25;6.13;;;5.18;;
11791;SDS011;5953;52.372;9.918;2022-09-12T10:50:57;8.10;;;6.82;;
11791;SDS011;5953;52.372;9.918;2022-09-12T10:53:25;6.03;;;5.33;;
11791;SDS011;5953;52.372;9.918;2022-09-12T10:56:04;6.10;;;5.45;;
11791;SDS011;5953;52.372;9.918;2022-09-12T10:58:43;5.10;;;4.60;;
11791;SDS011;5953;52.372;9.918;2022-09-12T11:01:33;3.65;;;3.35;;
11791;SDS011;5953;52.372;9.918;2022-09-12T11:07:09;5.07;;;4.28;;
11791;SDS011;5953;52.372;9.918;2022-09-12T11:09:49;5.70;;;3.70;;
11791;SDS011;5953;52.372;9.918;2022-09-12T11:12:26;5.55;;;4.03;;
11791;SDS011;5953;52.372;9.918;2022-09-12T11:15:02;3.92;;;3.50;;
11791;SDS011;5953;52.372;9.918;2022-09-12T11:17:45;5.40;;;3.90;;
11791;SDS011;5953;52.372;9.918;2022-09-12T11:20:23;3.65;;;3.35;;
11791;SDS011;5953;52.372;9.918;2022-09-12T11:23:27;4.03;;;3.63;;
11791;SDS011;5953;52.372;9.918;2022-09-12T11:26:08;4.75;;;3.35;;
11791;SDS011;5953;52.372;9.918;2022-09-12T11:28:46;6.13;;;3.90;;
11791;SDS011;5953;52.372;9.918;2022-09-12T11:34:20;3.47;;;2.60;;
11791;SDS011;5953;52.372;9.918;2022-09-12T11:37:01;4.13;;;3.30;;
11791;SDS011;5953;52.372;9.918;2022-09-12T11:39:44;3.03;;;2.72;;
11791;SDS011;5953;52.372;9.918;2022-09-12T11:42:18;3.60;;;3.30;;
11791;SDS011;5953;52.372;9.918;2022-09-12T11:44:52;3.35;;;3.05;;
11791;SDS011;5953;52.372;9.918;2022-09-12T11:47:25;2.90;;;2.70;;
11791;SDS011;5953;52.372;9.918;2022-09-12T11:49:58;3.45;;;2.83;;
11791;SDS011;5953;52.372;9.918;2022-09-12T11:52:34;2.78;;;2.35;;
11791;SDS011;5953;52.372;9.918;2022-09-12T11:55:04;2.35;;;2.15;;
11791;SDS011;5953;52.372;9.918;2022-09-12T11:57:38;2.95;;;2.75;;
11791;SDS011;5953;52.372;9.918;2022-09-12T12:00:13;3.58;;;2.10;;
11791;SDS011;5953;52.372;9.918;2022-09-12T12:02:47;2.78;;;2.58;;
11791;SDS011;5953;52.372;9.918;2022-09-12T12:05:22;2.63;;;2.42;;
11791;SDS011;5953;52.372;9.918;2022-09-12T12:07:55;3.28;;;2.38;;
11791;SDS011;5953;52.372;9.918;2022-09-12T12:10:25;3.08;;;2.50;;
11791;SDS011;5953;52.372;9.918;2022-09-12T12:12:58;4.68;;;2.42;;
11791;SDS011;5953;52.372;9.918;2022-09-12T12:15:28;3.60;;;2.70;;
11791;SDS011;5953;52.372;9.918;2022-09-12T12:18:00;2.78;;;2.17;;
11791;SDS011;5953;52.372;9.918;2022-09-12T12:20:31;3.30;;;2.20;;
11791;SDS011;5953;52.372;9.918;2022-09-12T12:23:00;2.75;;;2.20;;
11791;SDS011;5953;52.372;9.918;2022-09-12T12:25:38;3.17;;;2.50;;
11791;SDS011;5953;52.372;9.918;2022-09-12T12:28:08;3.30;;;2.20;;
11791;SDS011;5953;52.372;9.918;2022-09-12T12:36:29;4.15;;;2.10;;
11791;SDS011;5953;52.372;9.918;2022-09-12T12:51:53;3.10;;;2.00;;
11791;SDS011;5953;52.372;9.918;2022-09-12T12:54:33;2.28;;;2.00;;
11791;SDS011;5953;52.372;9.918;2022-09-12T12:57:30;1.63;;;1.52;;
11791;SDS011;5953;52.372;9.918;2022-09-12T13:00:04;2.47;;;1.63;;
11791;SDS011;5953;52.372;9.918;2022-09-12T13:02:38;1.67;;;1.55;;
11791;SDS011;5953;52.372;9.918;2022-09-12T13:05:16;2.92;;;1.60;;
11791;SDS011;5953;52.372;9.918;2022-09-12T13:07:47;2.33;;;1.90;;
11791;SDS011;5953;52.372;9.918;2022-09-12T13:10:21;2.20;;;1.55;;
11791;SDS011;5953;52.372;9.918;2022-09-12T13:12:52;1.60;;;1.50;;
11791;SDS011;5953;52.372;9.918;2022-09-12T13:18:16;1.70;;;1.60;;
11791;SDS011;5953;52.372;9.918;2022-09-12T13:20:50;2.15;;;1.40;;
11791;SDS011;5953;52.372;9.918;2022-09-12T13:23:24;2.05;;;1.80;;
11791;SDS011;5953;52.372;9.918;2022-09-12T13:25:54;3.40;;;1.60;;
11791;SDS011;5953;52.372;9.918;2022-09-12T13:28:23;2.03;;;1.90;;
11791;SDS011;5953;52.372;9.918;2022-09-12T13:30:58;1.52;;;1.40;;
11791;SDS011;5953;52.372;9.918;2022-09-12T13:33:32;2.03;;;1.67;;
11791;SDS011;5953;52.372;9.918;2022-09-12T13:36:09;3.22;;;1.65;;
11791;SDS011;5953;52.372;9.918;2022-09-12T13:39:04;1.90;;;1.70;;
11791;SDS011;5953;52.372;9.918;2022-09-12T13:44:36;1.77;;;1.50;;
11791;SDS011;5953;52.372;9.918;2022-09-12T13:47:09;3.25;;;1.70;;
11791;SDS011;5953;52.372;9.918;2022-09-12T13:49:42;2.45;;;1.58;;
11791;SDS011;5953;52.372;9.918;2022-09-12T13:52:14;2.03;;;1.60;;
11791;SDS011;5953;52.372;9.918;2022-09-12T13:54:44;1.65;;;1.55;;
11791;SDS011;5953;52.372;9.918;2022-09-12T13:57:28;4.35;;;1.60;;
11791;SDS011;5953;52.372;9.918;2022-09-12T13:59:58;2.92;;;1.20;;
11791;SDS011;5953;52.372;9.918;2022-09-12T14:02:29;2.60;;;1.70;;
11791;SDS011;5953;52.372;9.918;2022-09-12T14:04:58;1.48;;;1.38;;
11791;SDS011;5953;52.372;9.918;2022-09-12T14:07:39;2.95;;;1.70;;
11791;SDS011;5953;52.372;9.918;2022-09-12T14:10:20;2.65;;;1.45;;
11791;SDS011;5953;52.372;9.918;2022-09-12T14:12:54;3.05;;;1.70;;
11791;SDS011;5953;52.372;9.918;2022-09-12T14:15:24;1.85;;;1.42;;
11791;SDS011;5953;52.372;9.918;2022-09-12T14:17:55;1.27;;;1.17;;
11791;SDS011;5953;52.372;9.918;2022-09-12T14:20:28;3.00;;;1.67;;
11791;SDS011;5953;52.372;9.918;2022-09-12T14:22:58;1.40;;;1.30;;
11791;SDS011;5953;52.372;9.918;2022-09-12T14:25:30;1.50;;;1.40;;
11791;SDS011;5953;52.372;9.918;2022-09-12T14:28:04;1.98;;;1.60;;
11791;SDS011;5953;52.372;9.918;2022-09-12T14:30:33;2.90;;;1.63;;
11791;SDS011;5953;52.372;9.918;2022-09-12T14:33:18;2.70;;;1.40;;
11791;SDS011;5953;52.372;9.918;2022-09-12T14:35:49;3.22;;;1.33;;
11791;SDS011;5953;52.372;9.918;2022-09-12T14:38:21;1.50;;;1.40;;
11791;SDS011;5953;52.372;9.918;2022-09-12T14:40:52;2.65;;;1.20;;
11791;SDS011;5953;52.372;9.918;2022-09-12T14:43:27;1.80;;;1.60;;
11791;SDS011;5953;52.372;9.918;2022-09-12T14:45:58;2.20;;;1.60;;
11791;SDS011;5953;52.372;9.918;2022-09-12T14:48:28;1.45;;;1.35;;
11791;SDS011;5953;52.372;9.918;2022-09-12T14:50:59;1.83;;;1.70;;
11791;SDS011;5953;52.372;9.918;2022-09-12T14:53:31;1.70;;;1.58;;
11791;SDS011;5953;52.372;9.918;2022-09-12T14:56:07;1.95;;;1.60;;
11791;SDS011;5953;52.372;9.918;2022-09-12T14:58:36;1.65;;;1.55;;
11791;SDS011;5953;52.372;9.918;2022-09-12T15:01:20;1.60;;;1.48;;
11791;SDS011;5953;52.372;9.918;2022-09-12T15:03:51;2.35;;;1.60;;
11791;SDS011;5953;52.372;9.918;2022-09-12T15:06:25;1.75;;;1.65;;
11791;SDS011;5953;52.372;9.918;2022-09-12T15:08:56;3.17;;;1.95;;
11791;SDS011;5953;52.372;9.918;2022-09-12T15:11:25;1.63;;;1.52;;
11791;SDS011;5953;52.372;9.918;2022-09-12T15:13:53;3.22;;;1.55;;
11791;SDS011;5953;52.372;9.918;2022-09-12T15:16:21;2.00;;;1.63;;
11791;SDS011;5953;52.372;9.918;2022-09-12T15:18:49;1.83;;;1.70;;
11791;SDS011;5953;52.372;9.918;2022-09-12T15:21:17;1.45;;;1.35;;
11791;SDS011;5953;52.372;9.918;2022-09-12T15:23:48;2.85;;;1.40;;
11791;SDS011;5953;52.372;9.918;2022-09-12T15:26:17;1.70;;;1.40;;
11791;SDS011;5953;52.372;9.918;2022-09-12T15:28:47;1.70;;;1.30;;
11791;SDS011;5953;52.372;9.918;2022-09-12T15:31:18;1.50;;;1.30;;
11791;SDS011;5953;52.372;9.918;2022-09-12T15:33:52;2.17;;;1.60;;
11791;SDS011;5953;52.372;9.918;2022-09-12T15:36:21;2.15;;;1.70;;
11791;SDS011;5953;52.372;9.918;2022-09-12T15:38:52;2.15;;;1.50;;
11791;SDS011;5953;52.372;9.918;2022-09-12T15:41:20;1.70;;;1.50;;
11791;SDS011;5953;52.372;9.918;2022-09-12T15:43:49;1.60;;;1.50;;
11791;SDS011;5953;52.372;9.918;2022-09-12T15:46:17;1.50;;;1.40;;
11791;SDS011;5953;52.372;9.918;2022-09-12T15:48:46;1.30;;;1.20;;
11791;SDS011;5953;52.372;9.918;2022-09-12T15:51:14;2.47;;;1.63;;
11791;SDS011;5953;52.372;9.918;2022-09-12T15:53:43;1.85;;;1.58;;